Indi — CQIG3 — position and weather

sailwx.info

Track history (hours):
 
Tides and Currents Weather Stations Pressure Air Temp Water Temp Dewpoint Dewpoint Depression Visibility Wind Speed Wind Dir Waves Ship Positions

Indi

Last reported at 2018-Feb-24 09:44 UTC. Time now 2018-Feb-24 23:58 UTC.
Position N 39°29' W 009°50'.

Length 89 m; draft 5.6 m.

Type: Cargo ship. MMSI: 255805951.

Date/timePositionNaut miles runAvg speedWind from/ knotsBaromVisibWave heightAir tempDewpointWater temp
2018-Feb-24 09:44N 39°29' W 009°50'210.1
2018-Feb-24 09:30N 39°27' W 009°50'510.1
2018-Feb-24 09:00N 39°22' W 009°50'510.2
2018-Feb-24 08:30N 39°17' W 009°50'5 9.9
2018-Feb-24 08:00N 39°12' W 009°50'5 9.7
2018-Feb-24 07:30N 39°07' W 009°50'5 9.9
2018-Feb-24 07:00N 39°02' W 009°50'510.2
2018-Feb-24 06:30N 38°57' W 009°50'510.1
2018-Feb-24 06:00N 38°52' W 009°50'510.3
2018-Feb-24 05:30N 38°47' W 009°50'510.1
2018-Feb-24 05:00N 38°42' W 009°50'5 9.9
2018-Feb-24 04:30N 38°37' W 009°49'510.2
2018-Feb-24 04:00N 38°32' W 009°48'510.4
2018-Feb-24 03:30N 38°27' W 009°46'510.3
2018-Feb-24 02:59N 38°22' W 009°44'5 9.9
2018-Feb-24 02:29N 38°17' W 009°43'5 9.8
2018-Feb-24 02:00N 38°12' W 009°42'5 9.8
2018-Feb-24 01:30N 38°08' W 009°40'5 9.9
2018-Feb-24 01:00N 38°03' W 009°38'5 9.8
2018-Feb-24 00:30N 37°58' W 009°37'5 9.8
2018-Feb-23 23:58N 37°53' W 009°36'5 9.9
2018-Feb-23 23:30N 37°48' W 009°34'6 9.9
2018-Feb-23 22:52N 37°42' W 009°33'410.0
2018-Feb-23 22:27N 37°38' W 009°31'215 8.6
2018-Feb-22 21:20N 35°59' W 005°33'3 7.0
2018-Feb-22 20:58N 35°60' W 005°30'3 7.3
2018-Feb-22 20:30N 36°00' W 005°26'3 7.0
2018-Feb-22 20:00N 36°01' W 005°22'3 6.8
2018-Feb-22 19:30N 36°02' W 005°18'  
2018-Feb-20 05:31N 36°05' W 005°12'111.5
2018-Feb-20 05:28N 36°05' W 005°13'511.7
2018-Feb-20 05:00N 36°04' W 005°20'5 9.9
2018-Feb-20 04:30N 36°08' W 005°24'3 5.8
2018-Feb-20 03:58N 36°11' W 005°25'0 0.0
2018-Feb-20 03:28N 36°11' W 005°25'0 0.0
2018-Feb-20 02:46N 36°11' W 005°25'0 0.0
2018-Feb-20 02:28N 36°11' W 005°25'0 0.0
2018-Feb-20 01:46N 36°11' W 005°25'0 0.0
2018-Feb-20 01:28N 36°11' W 005°25'0 0.0
2018-Feb-20 00:22N 36°11' W 005°25'0 0.0
2018-Feb-19 23:52N 36°11' W 005°25'0 0.0
2018-Feb-19 23:22N 36°11' W 005°25'0 0.0
2018-Feb-19 21:04N 36°11' W 005°25'0 0.0
2018-Feb-19 20:58N 36°11' W 005°25'0 0.0
2018-Feb-19 17:46N 36°11' W 005°25'0 0.0
2018-Feb-19 12:10N 36°11' W 005°25'0 0.0
2018-Feb-19 11:52N 36°11' W 005°25'0 0.0
2018-Feb-19 11:22N 36°11' W 005°25'0 0.0
2018-Feb-19 10:58N 36°11' W 005°25'0 0.0
2018-Feb-19 10:22N 36°11' W 005°25'0 0.0
2018-Feb-19 09:58N 36°11' W 005°25'0 0.0
2018-Feb-19 09:22N 36°11' W 005°25'  
2018-Feb-17 05:19N 38°20' W 010°01'3 9.5
2018-Feb-17 05:00N 38°22' W 010°02'5 9.6
2018-Feb-17 04:30N 38°27' W 010°03'610.0
2018-Feb-17 03:56N 38°33' W 010°05'710.2
2018-Feb-17 03:13N 38°40' W 010°07'2 9.9
2018-Feb-17 02:58N 38°42' W 010°08'4 9.6
2018-Feb-17 02:30N 38°47' W 010°07'6 9.4
2018-Feb-17 01:55N 38°52' W 010°07'4 9.1
2018-Feb-17 01:30N 38°56' W 010°07'5 9.3
2018-Feb-17 01:00N 39°01' W 010°07'5 9.2
2018-Feb-17 00:30N 39°05' W 010°07'5 9.4
2018-Feb-17 00:00N 39°10' W 010°07'5 9.6
2018-Feb-16 23:30N 39°15' W 010°07'  
Track history (hours):
 
Tides and Currents Weather Stations Pressure Air Temp Water Temp Dewpoint Dewpoint Depression Visibility Wind Speed Wind Dir Waves Ship Positions

Indi

Last reported at 2018-Feb-24 09:44 UTC. Time now 2018-Feb-24 23:58 UTC.
Position N 39°29' W 009°50'.

Length 89 m; draft 5.6 m.

Type: Cargo ship. MMSI: 255805951.

Date/timePositionNaut miles runAvg speedWind from/ knotsBaromVisibWave heightAir tempDewpointWater temp
2018-Feb-24 09:44N 39°29' W 009°50'210.1
2018-Feb-24 09:30N 39°27' W 009°50'510.1
2018-Feb-24 09:00N 39°22' W 009°50'510.2
2018-Feb-24 08:30N 39°17' W 009°50'5 9.9
2018-Feb-24 08:00N 39°12' W 009°50'5 9.7
2018-Feb-24 07:30N 39°07' W 009°50'5 9.9
2018-Feb-24 07:00N 39°02' W 009°50'510.2
2018-Feb-24 06:30N 38°57' W 009°50'510.1
2018-Feb-24 06:00N 38°52' W 009°50'510.3
2018-Feb-24 05:30N 38°47' W 009°50'510.1
2018-Feb-24 05:00N 38°42' W 009°50'5 9.9
2018-Feb-24 04:30N 38°37' W 009°49'510.2
2018-Feb-24 04:00N 38°32' W 009°48'510.4
2018-Feb-24 03:30N 38°27' W 009°46'510.3
2018-Feb-24 02:59N 38°22' W 009°44'5 9.9
2018-Feb-24 02:29N 38°17' W 009°43'5 9.8
2018-Feb-24 02:00N 38°12' W 009°42'5 9.8
2018-Feb-24 01:30N 38°08' W 009°40'5 9.9
2018-Feb-24 01:00N 38°03' W 009°38'5 9.8
2018-Feb-24 00:30N 37°58' W 009°37'5 9.8
2018-Feb-23 23:58N 37°53' W 009°36'5 9.9
2018-Feb-23 23:30N 37°48' W 009°34'6 9.9
2018-Feb-23 22:52N 37°42' W 009°33'410.0
2018-Feb-23 22:27N 37°38' W 009°31'215 8.6
2018-Feb-22 21:20N 35°59' W 005°33'3 7.0
2018-Feb-22 20:58N 35°60' W 005°30'3 7.3
2018-Feb-22 20:30N 36°00' W 005°26'3 7.0
2018-Feb-22 20:00N 36°01' W 005°22'3 6.8
2018-Feb-22 19:30N 36°02' W 005°18'  
2018-Feb-20 05:31N 36°05' W 005°12'111.5
2018-Feb-20 05:28N 36°05' W 005°13'511.7
2018-Feb-20 05:00N 36°04' W 005°20'5 9.9
2018-Feb-20 04:30N 36°08' W 005°24'3 5.8
2018-Feb-20 03:58N 36°11' W 005°25'0 0.0
2018-Feb-20 03:28N 36°11' W 005°25'0 0.0
2018-Feb-20 02:46N 36°11' W 005°25'0 0.0
2018-Feb-20 02:28N 36°11' W 005°25'0 0.0
2018-Feb-20 01:46N 36°11' W 005°25'0 0.0
2018-Feb-20 01:28N 36°11' W 005°25'0 0.0
2018-Feb-20 00:22N 36°11' W 005°25'0 0.0
2018-Feb-19 23:52N 36°11' W 005°25'0 0.0
2018-Feb-19 23:22N 36°11' W 005°25'0 0.0
2018-Feb-19 21:04N 36°11' W 005°25'0 0.0
2018-Feb-19 20:58N 36°11' W 005°25'0 0.0
2018-Feb-19 17:46N 36°11' W 005°25'0 0.0
2018-Feb-19 12:10N 36°11' W 005°25'0 0.0
2018-Feb-19 11:52N 36°11' W 005°25'0 0.0
2018-Feb-19 11:22N 36°11' W 005°25'0 0.0
2018-Feb-19 10:58N 36°11' W 005°25'0 0.0
2018-Feb-19 10:22N 36°11' W 005°25'0 0.0
2018-Feb-19 09:58N 36°11' W 005°25'0 0.0
2018-Feb-19 09:22N 36°11' W 005°25'  
2018-Feb-17 05:19N 38°20' W 010°01'3 9.5
2018-Feb-17 05:00N 38°22' W 010°02'5 9.6
2018-Feb-17 04:30N 38°27' W 010°03'610.0
2018-Feb-17 03:56N 38°33' W 010°05'710.2
2018-Feb-17 03:13N 38°40' W 010°07'2 9.9
2018-Feb-17 02:58N 38°42' W 010°08'4 9.6
2018-Feb-17 02:30N 38°47' W 010°07'6 9.4
2018-Feb-17 01:55N 38°52' W 010°07'4 9.1
2018-Feb-17 01:30N 38°56' W 010°07'5 9.3
2018-Feb-17 01:00N 39°01' W 010°07'5 9.2
2018-Feb-17 00:30N 39°05' W 010°07'5 9.4
2018-Feb-17 00:00N 39°10' W 010°07'5 9.6
2018-Feb-16 23:30N 39°15' W 010°07'  

Dump ship's entire track history